sensor_id;sensor_type;location;lat;lon;timestamp;P1;durP1;ratioP1;P2;durP2;ratioP2
45318;SDS011;31057;48.498;32.260;2024-02-15T00:00:55;56.90;;;31.20;;
45318;SDS011;31057;48.498;32.260;2024-02-15T00:03:01;50.47;;;28.17;;
45318;SDS011;31057;48.498;32.260;2024-02-15T00:07:05;53.67;;;28.95;;
45318;SDS011;31057;48.498;32.260;2024-02-15T00:11:09;57.33;;;28.67;;
45318;SDS011;31057;48.498;32.260;2024-02-15T00:13:11;50.30;;;28.05;;
45318;SDS011;31057;48.498;32.260;2024-02-15T00:15:13;51.22;;;24.45;;
45318;SDS011;31057;48.498;32.260;2024-02-15T00:19:17;47.95;;;25.75;;
45318;SDS011;31057;48.498;32.260;2024-02-15T00:21:19;42.25;;;25.67;;
45318;SDS011;31057;48.498;32.260;2024-02-15T00:23:22;45.00;;;27.13;;
45318;SDS011;31057;48.498;32.260;2024-02-15T00:25:24;45.40;;;27.88;;
45318;SDS011;31057;48.498;32.260;2024-02-15T00:27:27;47.25;;;27.10;;
45318;SDS011;31057;48.498;32.260;2024-02-15T00:29:29;44.80;;;25.92;;
45318;SDS011;31057;48.498;32.260;2024-02-15T00:35:38;40.85;;;24.88;;
45318;SDS011;31057;48.498;32.260;2024-02-15T00:37:41;45.58;;;26.75;;
45318;SDS011;31057;48.498;32.260;2024-02-15T00:41:45;43.22;;;24.00;;
45318;SDS011;31057;48.498;32.260;2024-02-15T00:43:47;39.58;;;24.05;;
45318;SDS011;31057;48.498;32.260;2024-02-15T00:45:50;36.13;;;22.35;;
45318;SDS011;31057;48.498;32.260;2024-02-15T00:47:52;40.35;;;24.13;;
45318;SDS011;31057;48.498;32.260;2024-02-15T00:49:55;38.05;;;24.10;;
45318;SDS011;31057;48.498;32.260;2024-02-15T00:54:00;38.35;;;23.20;;
45318;SDS011;31057;48.498;32.260;2024-02-15T00:56:02;40.40;;;23.73;;
45318;SDS011;31057;48.498;32.260;2024-02-15T00:58:05;43.72;;;25.10;;
45318;SDS011;31057;48.498;32.260;2024-02-15T01:00:07;37.30;;;23.55;;
45318;SDS011;31057;48.498;32.260;2024-02-15T01:02:11;39.60;;;24.15;;
45318;SDS011;31057;48.498;32.260;2024-02-15T01:04:14;41.30;;;24.77;;
45318;SDS011;31057;48.498;32.260;2024-02-15T01:06:16;43.72;;;26.00;;
45318;SDS011;31057;48.498;32.260;2024-02-15T01:10:21;39.00;;;23.75;;
45318;SDS011;31057;48.498;32.260;2024-02-15T01:12:25;37.33;;;24.63;;
45318;SDS011;31057;48.498;32.260;2024-02-15T01:14:28;39.03;;;24.40;;
45318;SDS011;31057;48.498;32.260;2024-02-15T01:16:32;38.22;;;24.60;;
45318;SDS011;31057;48.498;32.260;2024-02-15T01:18:34;41.05;;;23.13;;
45318;SDS011;31057;48.498;32.260;2024-02-15T01:20:36;40.85;;;23.60;;
45318;SDS011;31057;48.498;32.260;2024-02-15T01:22:38;43.40;;;23.63;;
45318;SDS011;31057;48.498;32.260;2024-02-15T01:24:40;42.30;;;23.73;;
45318;SDS011;31057;48.498;32.260;2024-02-15T01:26:42;43.72;;;24.73;;
45318;SDS011;31057;48.498;32.260;2024-02-15T01:30:46;37.15;;;22.17;;
45318;SDS011;31057;48.498;32.260;2024-02-15T01:34:50;36.55;;;22.67;;
45318;SDS011;31057;48.498;32.260;2024-02-15T01:36:55;35.55;;;19.48;;
45318;SDS011;31057;48.498;32.260;2024-02-15T01:38:57;35.30;;;21.10;;
45318;SDS011;31057;48.498;32.260;2024-02-15T01:40:59;28.63;;;16.60;;
45318;SDS011;31057;48.498;32.260;2024-02-15T01:45:03;25.92;;;18.35;;
45318;SDS011;31057;48.498;32.260;2024-02-15T01:47:05;30.70;;;19.30;;
45318;SDS011;31057;48.498;32.260;2024-02-15T01:49:09;30.02;;;17.17;;
45318;SDS011;31057;48.498;32.260;2024-02-15T01:51:13;29.55;;;17.27;;
45318;SDS011;31057;48.498;32.260;2024-02-15T01:53:17;33.47;;;18.13;;
45318;SDS011;31057;48.498;32.260;2024-02-15T01:55:19;29.98;;;16.40;;
45318;SDS011;31057;48.498;32.260;2024-02-15T01:57:23;26.25;;;17.75;;
45318;SDS011;31057;48.498;32.260;2024-02-15T02:01:27;21.63;;;13.70;;
45318;SDS011;31057;48.498;32.260;2024-02-15T02:03:32;26.70;;;16.10;;
45318;SDS011;31057;48.498;32.260;2024-02-15T02:07:37;22.48;;;14.32;;
45318;SDS011;31057;48.498;32.260;2024-02-15T02:09:39;25.00;;;14.75;;
45318;SDS011;31057;48.498;32.260;2024-02-15T02:11:41;23.27;;;13.95;;
45318;SDS011;31057;48.498;32.260;2024-02-15T02:13:50;23.48;;;14.20;;
45318;SDS011;31057;48.498;32.260;2024-02-15T02:15:53;24.95;;;15.35;;
45318;SDS011;31057;48.498;32.260;2024-02-15T02:17:55;23.50;;;14.40;;
45318;SDS011;31057;48.498;32.260;2024-02-15T02:19:57;28.98;;;16.38;;
45318;SDS011;31057;48.498;32.260;2024-02-15T02:24:02;27.30;;;14.95;;
45318;SDS011;31057;48.498;32.260;2024-02-15T02:26:09;24.48;;;15.88;;
45318;SDS011;31057;48.498;32.260;2024-02-15T02:30:14;29.05;;;16.00;;
45318;SDS011;31057;48.498;32.260;2024-02-15T02:32:18;28.25;;;17.50;;
45318;SDS011;31057;48.498;32.260;2024-02-15T02:36:23;27.77;;;15.57;;
45318;SDS011;31057;48.498;32.260;2024-02-15T02:38:28;31.08;;;17.48;;
45318;SDS011;31057;48.498;32.260;2024-02-15T02:40:30;29.25;;;15.65;;
45318;SDS011;31057;48.498;32.260;2024-02-15T02:44:33;29.47;;;15.13;;
45318;SDS011;31057;48.498;32.260;2024-02-15T02:46:36;28.13;;;12.77;;
45318;SDS011;31057;48.498;32.260;2024-02-15T02:48:39;26.15;;;14.05;;
45318;SDS011;31057;48.498;32.260;2024-02-15T02:50:41;25.50;;;14.32;;
45318;SDS011;31057;48.498;32.260;2024-02-15T02:54:45;30.00;;;14.02;;
45318;SDS011;31057;48.498;32.260;2024-02-15T02:56:47;24.52;;;10.77;;
45318;SDS011;31057;48.498;32.260;2024-02-15T02:58:49;23.08;;;12.48;;
45318;SDS011;31057;48.498;32.260;2024-02-15T03:00:52;22.65;;;11.23;;
45318;SDS011;31057;48.498;32.260;2024-02-15T03:02:54;21.33;;;10.38;;
45318;SDS011;31057;48.498;32.260;2024-02-15T03:04:58;26.48;;;12.15;;
45318;SDS011;31057;48.498;32.260;2024-02-15T03:07:04;22.65;;;11.15;;
45318;SDS011;31057;48.498;32.260;2024-02-15T03:09:06;25.73;;;11.20;;
45318;SDS011;31057;48.498;32.260;2024-02-15T03:11:11;19.73;;;10.68;;
45318;SDS011;31057;48.498;32.260;2024-02-15T03:13:13;20.85;;;11.13;;
45318;SDS011;31057;48.498;32.260;2024-02-15T03:15:16;17.10;;;10.10;;
45318;SDS011;31057;48.498;32.260;2024-02-15T03:17:20;24.35;;;11.00;;
45318;SDS011;31057;48.498;32.260;2024-02-15T03:19:22;22.58;;;11.02;;
45318;SDS011;31057;48.498;32.260;2024-02-15T03:23:27;18.75;;;8.98;;
45318;SDS011;31057;48.498;32.260;2024-02-15T03:25:30;20.90;;;10.63;;
45318;SDS011;31057;48.498;32.260;2024-02-15T03:27:32;22.73;;;10.57;;
45318;SDS011;31057;48.498;32.260;2024-02-15T03:29:34;22.48;;;10.20;;
45318;SDS011;31057;48.498;32.260;2024-02-15T03:33:38;19.20;;;9.55;;
45318;SDS011;31057;48.498;32.260;2024-02-15T03:35:41;17.73;;;11.02;;
45318;SDS011;31057;48.498;32.260;2024-02-15T03:37:43;17.40;;;10.23;;
45318;SDS011;31057;48.498;32.260;2024-02-15T03:39:45;18.52;;;9.98;;
45318;SDS011;31057;48.498;32.260;2024-02-15T03:43:49;16.83;;;10.00;;
45318;SDS011;31057;48.498;32.260;2024-02-15T03:45:51;23.13;;;9.48;;
45318;SDS011;31057;48.498;32.260;2024-02-15T03:47:53;20.67;;;10.30;;
45318;SDS011;31057;48.498;32.260;2024-02-15T03:49:57;22.70;;;10.63;;
45318;SDS011;31057;48.498;32.260;2024-02-15T03:51:59;25.42;;;11.02;;
45318;SDS011;31057;48.498;32.260;2024-02-15T03:54:01;26.45;;;11.30;;
45318;SDS011;31057;48.498;32.260;2024-02-15T03:56:05;21.33;;;9.45;;
45318;SDS011;31057;48.498;32.260;2024-02-15T03:58:08;12.75;;;7.82;;
45318;SDS011;31057;48.498;32.260;2024-02-15T04:02:13;18.33;;;8.38;;
45318;SDS011;31057;48.498;32.260;2024-02-15T04:04:16;17.50;;;9.32;;
45318;SDS011;31057;48.498;32.260;2024-02-15T04:06:18;15.90;;;9.02;;
45318;SDS011;31057;48.498;32.260;2024-02-15T04:08:20;20.27;;;8.70;;
45318;SDS011;31057;48.498;32.260;2024-02-15T04:10:22;20.58;;;10.00;;
45318;SDS011;31057;48.498;32.260;2024-02-15T04:12:24;20.83;;;9.82;;
45318;SDS011;31057;48.498;32.260;2024-02-15T04:14:28;22.42;;;10.32;;
45318;SDS011;31057;48.498;32.260;2024-02-15T04:16:30;20.50;;;10.55;;
45318;SDS011;31057;48.498;32.260;2024-02-15T04:18:35;18.35;;;9.57;;
45318;SDS011;31057;48.498;32.260;2024-02-15T04:20:37;17.77;;;9.60;;
45318;SDS011;31057;48.498;32.260;2024-02-15T04:22:39;17.20;;;8.38;;
45318;SDS011;31057;48.498;32.260;2024-02-15T04:24:44;18.98;;;9.77;;
45318;SDS011;31057;48.498;32.260;2024-02-15T04:26:47;26.27;;;15.25;;
45318;SDS011;31057;48.498;32.260;2024-02-15T04:28:50;23.77;;;10.35;;
45318;SDS011;31057;48.498;32.260;2024-02-15T04:30:53;18.10;;;8.98;;
45318;SDS011;31057;48.498;32.260;2024-02-15T04:32:56;16.13;;;9.50;;
45318;SDS011;31057;48.498;32.260;2024-02-15T04:37:02;17.15;;;9.73;;
45318;SDS011;31057;48.498;32.260;2024-02-15T04:39:08;17.88;;;9.70;;
45318;SDS011;31057;48.498;32.260;2024-02-15T04:41:13;16.85;;;8.77;;
45318;SDS011;31057;48.498;32.260;2024-02-15T04:43:15;16.23;;;9.25;;
45318;SDS011;31057;48.498;32.260;2024-02-15T04:45:17;15.13;;;8.57;;
45318;SDS011;31057;48.498;32.260;2024-02-15T04:47:22;15.95;;;9.57;;
45318;SDS011;31057;48.498;32.260;2024-02-15T04:49:24;15.82;;;8.35;;
45318;SDS011;31057;48.498;32.260;2024-02-15T04:51:27;19.90;;;9.50;;
45318;SDS011;31057;48.498;32.260;2024-02-15T04:53:29;15.80;;;10.10;;
45318;SDS011;31057;48.498;32.260;2024-02-15T04:55:32;16.48;;;9.05;;
45318;SDS011;31057;48.498;32.260;2024-02-15T04:57:34;22.35;;;12.10;;
45318;SDS011;31057;48.498;32.260;2024-02-15T04:59:38;18.65;;;8.73;;
45318;SDS011;31057;48.498;32.260;2024-02-15T05:01:40;17.23;;;10.23;;
45318;SDS011;31057;48.498;32.260;2024-02-15T05:03:44;20.98;;;9.80;;
45318;SDS011;31057;48.498;32.260;2024-02-15T05:05:46;23.60;;;9.75;;
45318;SDS011;31057;48.498;32.260;2024-02-15T05:07:49;20.65;;;11.82;;
45318;SDS011;31057;48.498;32.260;2024-02-15T05:09:51;16.02;;;10.18;;
45318;SDS011;31057;48.498;32.260;2024-02-15T05:11:54;24.55;;;16.45;;
45318;SDS011;31057;48.498;32.260;2024-02-15T05:15:59;31.02;;;19.17;;
45318;SDS011;31057;48.498;32.260;2024-02-15T05:18:01;38.28;;;23.20;;
45318;SDS011;31057;48.498;32.260;2024-02-15T05:20:03;24.67;;;16.70;;
45318;SDS011;31057;48.498;32.260;2024-02-15T05:22:11;27.70;;;16.00;;
45318;SDS011;31057;48.498;32.260;2024-02-15T05:24:17;25.17;;;14.13;;
45318;SDS011;31057;48.498;32.260;2024-02-15T05:26:21;28.45;;;13.82;;
45318;SDS011;31057;48.498;32.260;2024-02-15T05:28:24;32.10;;;15.57;;
45318;SDS011;31057;48.498;32.260;2024-02-15T05:30:28;30.25;;;17.70;;
45318;SDS011;31057;48.498;32.260;2024-02-15T05:32:34;32.78;;;16.98;;
45318;SDS011;31057;48.498;32.260;2024-02-15T05:34:44;41.90;;;21.08;;
45318;SDS011;31057;48.498;32.260;2024-02-15T05:36:46;55.05;;;26.67;;
45318;SDS011;31057;48.498;32.260;2024-02-15T05:38:53;79.47;;;31.25;;
45318;SDS011;31057;48.498;32.260;2024-02-15T05:40:55;71.25;;;31.92;;
45318;SDS011;31057;48.498;32.260;2024-02-15T05:42:58;72.18;;;34.33;;
45318;SDS011;31057;48.498;32.260;2024-02-15T05:45:14;70.65;;;33.65;;
45318;SDS011;31057;48.498;32.260;2024-02-15T05:47:31;78.90;;;35.40;;
45318;SDS011;31057;48.498;32.260;2024-02-15T05:49:33;73.10;;;32.05;;
45318;SDS011;31057;48.498;32.260;2024-02-15T05:51:36;72.80;;;34.65;;
45318;SDS011;31057;48.498;32.260;2024-02-15T05:53:38;60.70;;;30.45;;
45318;SDS011;31057;48.498;32.260;2024-02-15T05:55:40;64.82;;;32.53;;
45318;SDS011;31057;48.498;32.260;2024-02-15T05:57:45;72.70;;;35.33;;
45318;SDS011;31057;48.498;32.260;2024-02-15T05:59:47;64.57;;;35.50;;
45318;SDS011;31057;48.498;32.260;2024-02-15T06:01:50;59.78;;;31.42;;
45318;SDS011;31057;48.498;32.260;2024-02-15T06:03:52;58.50;;;31.88;;
45318;SDS011;31057;48.498;32.260;2024-02-15T06:05:57;52.13;;;29.15;;
45318;SDS011;31057;48.498;32.260;2024-02-15T06:08:00;57.63;;;29.35;;
45318;SDS011;31057;48.498;32.260;2024-02-15T06:10:02;52.80;;;28.63;;
45318;SDS011;31057;48.498;32.260;2024-02-15T06:12:05;56.17;;;31.88;;
45318;SDS011;31057;48.498;32.260;2024-02-15T06:14:07;59.60;;;32.00;;
45318;SDS011;31057;48.498;32.260;2024-02-15T06:16:09;62.85;;;29.08;;
45318;SDS011;31057;48.498;32.260;2024-02-15T06:18:14;56.08;;;31.23;;
45318;SDS011;31057;48.498;32.260;2024-02-15T06:20:18;52.83;;;29.88;;
45318;SDS011;31057;48.498;32.260;2024-02-15T06:22:21;41.38;;;25.05;;
45318;SDS011;31057;48.498;32.260;2024-02-15T06:24:23;48.50;;;24.00;;
45318;SDS011;31057;48.498;32.260;2024-02-15T06:28:28;47.95;;;26.20;;
45318;SDS011;31057;48.498;32.260;2024-02-15T06:30:48;49.47;;;27.40;;
45318;SDS011;31057;48.498;32.260;2024-02-15T06:33:09;40.35;;;24.70;;
45318;SDS011;31057;48.498;32.260;2024-02-15T06:35:29;50.40;;;26.30;;
45318;SDS011;31057;48.498;32.260;2024-02-15T06:37:50;57.97;;;26.40;;
45318;SDS011;31057;48.498;32.260;2024-02-15T06:40:11;54.00;;;26.52;;
45318;SDS011;31057;48.498;32.260;2024-02-15T06:42:15;61.38;;;30.52;;
45318;SDS011;31057;48.498;32.260;2024-02-15T06:44:19;59.72;;;28.85;;
45318;SDS011;31057;48.498;32.260;2024-02-15T06:46:22;49.67;;;26.27;;
45318;SDS011;31057;48.498;32.260;2024-02-15T06:48:24;40.92;;;21.67;;
45318;SDS011;31057;48.498;32.260;2024-02-15T06:50:27;43.13;;;24.40;;
45318;SDS011;31057;48.498;32.260;2024-02-15T06:52:30;49.75;;;25.52;;
45318;SDS011;31057;48.498;32.260;2024-02-15T06:54:33;52.78;;;32.53;;
45318;SDS011;31057;48.498;32.260;2024-02-15T06:56:37;57.92;;;31.33;;
45318;SDS011;31057;48.498;32.260;2024-02-15T06:58:40;51.50;;;29.17;;
45318;SDS011;31057;48.498;32.260;2024-02-15T07:00:43;42.58;;;27.08;;
45318;SDS011;31057;48.498;32.260;2024-02-15T07:02:45;38.88;;;21.35;;
45318;SDS011;31057;48.498;32.260;2024-02-15T07:04:49;33.50;;;18.25;;
45318;SDS011;31057;48.498;32.260;2024-02-15T07:06:53;34.25;;;19.05;;
45318;SDS011;31057;48.498;32.260;2024-02-15T07:08:56;42.65;;;26.52;;
45318;SDS011;31057;48.498;32.260;2024-02-15T07:10:59;36.95;;;19.50;;
45318;SDS011;31057;48.498;32.260;2024-02-15T07:13:03;46.83;;;27.63;;
45318;SDS011;31057;48.498;32.260;2024-02-15T07:15:05;41.25;;;22.02;;
45318;SDS011;31057;48.498;32.260;2024-02-15T07:17:10;47.13;;;27.23;;
45318;SDS011;31057;48.498;32.260;2024-02-15T07:19:15;32.80;;;20.10;;
45318;SDS011;31057;48.498;32.260;2024-02-15T07:21:19;41.33;;;25.08;;
45318;SDS011;31057;48.498;32.260;2024-02-15T07:23:27;31.00;;;20.55;;
45318;SDS011;31057;48.498;32.260;2024-02-15T07:25:29;45.95;;;26.50;;
45318;SDS011;31057;48.498;32.260;2024-02-15T07:27:32;42.72;;;24.65;;
45318;SDS011;31057;48.498;32.260;2024-02-15T07:29:36;51.40;;;33.20;;
45318;SDS011;31057;48.498;32.260;2024-02-15T07:31:39;38.33;;;22.17;;
45318;SDS011;31057;48.498;32.260;2024-02-15T07:33:41;39.45;;;24.20;;
45318;SDS011;31057;48.498;32.260;2024-02-15T07:35:44;31.92;;;19.75;;
45318;SDS011;31057;48.498;32.260;2024-02-15T07:37:53;38.38;;;21.77;;
45318;SDS011;31057;48.498;32.260;2024-02-15T07:39:57;35.45;;;21.05;;
45318;SDS011;31057;48.498;32.260;2024-02-15T07:42:00;33.63;;;21.70;;
45318;SDS011;31057;48.498;32.260;2024-02-15T07:44:02;46.28;;;31.73;;
45318;SDS011;31057;48.498;32.260;2024-02-15T07:46:04;32.78;;;18.95;;
45318;SDS011;31057;48.498;32.260;2024-02-15T07:48:06;40.55;;;25.08;;
45318;SDS011;31057;48.498;32.260;2024-02-15T07:50:09;47.33;;;29.17;;
45318;SDS011;31057;48.498;32.260;2024-02-15T07:52:11;42.33;;;27.60;;
45318;SDS011;31057;48.498;32.260;2024-02-15T07:54:14;32.58;;;20.98;;
45318;SDS011;31057;48.498;32.260;2024-02-15T07:56:17;43.10;;;29.00;;
45318;SDS011;31057;48.498;32.260;2024-02-15T07:58:19;35.00;;;23.02;;
45318;SDS011;31057;48.498;32.260;2024-02-15T08:00:21;36.60;;;24.60;;
45318;SDS011;31057;48.498;32.260;2024-02-15T08:04:26;43.45;;;30.58;;
45318;SDS011;31057;48.498;32.260;2024-02-15T08:06:29;44.50;;;31.20;;
45318;SDS011;31057;48.498;32.260;2024-02-15T08:08:34;42.55;;;29.02;;
45318;SDS011;31057;48.498;32.260;2024-02-15T08:10:36;42.83;;;27.60;;
45318;SDS011;31057;48.498;32.260;2024-02-15T08:12:42;46.53;;;28.77;;
45318;SDS011;31057;48.498;32.260;2024-02-15T08:14:46;37.72;;;21.65;;
45318;SDS011;31057;48.498;32.260;2024-02-15T08:18:50;46.47;;;31.92;;
45318;SDS011;31057;48.498;32.260;2024-02-15T08:20:59;34.55;;;21.17;;
45318;SDS011;31057;48.498;32.260;2024-02-15T08:25:03;42.08;;;28.60;;
45318;SDS011;31057;48.498;32.260;2024-02-15T08:27:06;37.38;;;22.75;;
45318;SDS011;31057;48.498;32.260;2024-02-15T08:29:09;38.50;;;24.73;;
45318;SDS011;31057;48.498;32.260;2024-02-15T08:31:13;38.10;;;23.42;;
45318;SDS011;31057;48.498;32.260;2024-02-15T08:33:16;36.80;;;21.17;;
45318;SDS011;31057;48.498;32.260;2024-02-15T08:35:21;40.92;;;22.70;;
45318;SDS011;31057;48.498;32.260;2024-02-15T08:37:23;53.97;;;32.83;;
45318;SDS011;31057;48.498;32.260;2024-02-15T08:39:25;50.80;;;30.13;;
45318;SDS011;31057;48.498;32.260;2024-02-15T08:41:27;32.95;;;20.80;;
45318;SDS011;31057;48.498;32.260;2024-02-15T08:43:29;25.98;;;16.48;;
45318;SDS011;31057;48.498;32.260;2024-02-15T08:45:34;33.65;;;24.35;;
45318;SDS011;31057;48.498;32.260;2024-02-15T08:47:37;33.35;;;22.02;;
45318;SDS011;31057;48.498;32.260;2024-02-15T08:49:40;30.90;;;18.85;;
45318;SDS011;31057;48.498;32.260;2024-02-15T08:51:42;35.08;;;21.75;;
45318;SDS011;31057;48.498;32.260;2024-02-15T08:53:45;37.70;;;24.45;;
45318;SDS011;31057;48.498;32.260;2024-02-15T08:55:47;40.97;;;26.92;;
45318;SDS011;31057;48.498;32.260;2024-02-15T08:57:49;35.40;;;24.00;;
45318;SDS011;31057;48.498;32.260;2024-02-15T08:59:52;34.90;;;24.65;;
45318;SDS011;31057;48.498;32.260;2024-02-15T09:01:55;35.45;;;21.83;;
45318;SDS011;31057;48.498;32.260;2024-02-15T09:03:58;34.17;;;20.98;;
45318;SDS011;31057;48.498;32.260;2024-02-15T09:08:05;17.52;;;12.45;;
45318;SDS011;31057;48.498;32.260;2024-02-15T09:10:08;32.65;;;21.90;;
45318;SDS011;31057;48.498;32.260;2024-02-15T09:12:11;33.55;;;24.52;;
45318;SDS011;31057;48.498;32.260;2024-02-15T09:14:14;25.50;;;16.75;;
45318;SDS011;31057;48.498;32.260;2024-02-15T09:16:16;34.38;;;21.50;;
45318;SDS011;31057;48.498;32.260;2024-02-15T09:18:18;28.95;;;22.65;;
45318;SDS011;31057;48.498;32.260;2024-02-15T09:20:24;34.40;;;19.63;;
45318;SDS011;31057;48.498;32.260;2024-02-15T09:22:29;31.15;;;20.90;;
45318;SDS011;31057;48.498;32.260;2024-02-15T09:24:34;34.55;;;21.23;;
45318;SDS011;31057;48.498;32.260;2024-02-15T09:26:36;24.60;;;17.30;;
45318;SDS011;31057;48.498;32.260;2024-02-15T09:28:39;37.70;;;28.02;;
45318;SDS011;31057;48.498;32.260;2024-02-15T09:30:41;38.10;;;26.23;;
45318;SDS011;31057;48.498;32.260;2024-02-15T09:32:43;28.85;;;19.98;;
45318;SDS011;31057;48.498;32.260;2024-02-15T09:34:46;28.58;;;19.30;;
45318;SDS011;31057;48.498;32.260;2024-02-15T09:36:48;32.28;;;22.05;;
45318;SDS011;31057;48.498;32.260;2024-02-15T09:38:50;34.40;;;22.20;;
45318;SDS011;31057;48.498;32.260;2024-02-15T09:40:52;30.50;;;17.85;;
45318;SDS011;31057;48.498;32.260;2024-02-15T09:42:56;28.55;;;19.90;;
45318;SDS011;31057;48.498;32.260;2024-02-15T09:47:04;31.17;;;20.77;;
45318;SDS011;31057;48.498;32.260;2024-02-15T09:49:07;28.50;;;19.85;;
45318;SDS011;31057;48.498;32.260;2024-02-15T09:51:09;30.35;;;22.48;;
45318;SDS011;31057;48.498;32.260;2024-02-15T09:53:13;32.22;;;22.80;;
45318;SDS011;31057;48.498;32.260;2024-02-15T09:55:17;38.10;;;22.27;;
45318;SDS011;31057;48.498;32.260;2024-02-15T09:57:19;42.63;;;29.15;;
45318;SDS011;31057;48.498;32.260;2024-02-15T09:59:22;43.38;;;27.27;;
45318;SDS011;31057;48.498;32.260;2024-02-15T10:03:26;33.85;;;22.08;;
45318;SDS011;31057;48.498;32.260;2024-02-15T10:05:32;32.38;;;21.17;;
45318;SDS011;31057;48.498;32.260;2024-02-15T10:07:34;35.60;;;20.90;;
45318;SDS011;31057;48.498;32.260;2024-02-15T10:09:36;36.42;;;26.20;;
45318;SDS011;31057;48.498;32.260;2024-02-15T10:14:04;34.60;;;21.67;;
45318;SDS011;31057;48.498;32.260;2024-02-15T10:16:15;30.15;;;20.00;;
45318;SDS011;31057;48.498;32.260;2024-02-15T10:18:19;35.58;;;24.08;;
45318;SDS011;31057;48.498;32.260;2024-02-15T10:20:24;32.03;;;17.58;;
45318;SDS011;31057;48.498;32.260;2024-02-15T10:22:29;20.65;;;14.00;;
45318;SDS011;31057;48.498;32.260;2024-02-15T10:24:31;23.15;;;17.10;;
45318;SDS011;31057;48.498;32.260;2024-02-15T10:26:33;22.33;;;16.63;;
45318;SDS011;31057;48.498;32.260;2024-02-15T10:28:36;25.80;;;19.23;;
45318;SDS011;31057;48.498;32.260;2024-02-15T10:30:40;27.65;;;18.70;;
45318;SDS011;31057;48.498;32.260;2024-02-15T10:32:51;24.58;;;17.60;;
45318;SDS011;31057;48.498;32.260;2024-02-15T10:34:56;31.13;;;23.05;;
45318;SDS011;31057;48.498;32.260;2024-02-15T10:37:11;26.15;;;18.45;;
45318;SDS011;31057;48.498;32.260;2024-02-15T10:39:14;28.02;;;20.75;;
45318;SDS011;31057;48.498;32.260;2024-02-15T10:41:22;26.92;;;18.88;;
45318;SDS011;31057;48.498;32.260;2024-02-15T10:43:26;29.88;;;24.42;;
45318;SDS011;31057;48.498;32.260;2024-02-15T10:47:32;39.40;;;27.48;;
45318;SDS011;31057;48.498;32.260;2024-02-15T10:49:35;34.03;;;26.65;;
45318;SDS011;31057;48.498;32.260;2024-02-15T10:51:38;21.70;;;15.10;;
45318;SDS011;31057;48.498;32.260;2024-02-15T10:53:47;26.65;;;18.40;;
45318;SDS011;31057;48.498;32.260;2024-02-15T10:58:25;14.57;;;9.35;;
45318;SDS011;31057;48.498;32.260;2024-02-15T11:00:32;20.65;;;15.50;;
45318;SDS011;31057;48.498;32.260;2024-02-15T11:02:37;31.63;;;22.83;;
45318;SDS011;31057;48.498;32.260;2024-02-15T11:04:44;38.13;;;26.67;;
45318;SDS011;31057;48.498;32.260;2024-02-15T11:06:49;23.23;;;16.10;;
45318;SDS011;31057;48.498;32.260;2024-02-15T11:08:52;28.52;;;20.60;;
45318;SDS011;31057;48.498;32.260;2024-02-15T11:10:55;29.02;;;19.38;;
45318;SDS011;31057;48.498;32.260;2024-02-15T11:13:00;20.45;;;14.40;;
45318;SDS011;31057;48.498;32.260;2024-02-15T11:15:04;21.70;;;15.38;;
45318;SDS011;31057;48.498;32.260;2024-02-15T11:17:08;31.80;;;24.17;;
45318;SDS011;31057;48.498;32.260;2024-02-15T11:19:30;30.42;;;21.25;;
45318;SDS011;31057;48.498;32.260;2024-02-15T11:21:54;24.25;;;17.50;;
45318;SDS011;31057;48.498;32.260;2024-02-15T11:24:47;13.65;;;8.85;;
45318;SDS011;31057;48.498;32.260;2024-02-15T11:26:43;21.83;;;17.60;;
45318;SDS011;31057;48.498;32.260;2024-02-15T11:28:50;21.00;;;14.65;;
45318;SDS011;31057;48.498;32.260;2024-02-15T11:32:58;20.48;;;14.80;;
45318;SDS011;31057;48.498;32.260;2024-02-15T11:35:07;26.73;;;19.10;;
45318;SDS011;31057;48.498;32.260;2024-02-15T11:37:48;19.20;;;12.75;;
45318;SDS011;31057;48.498;32.260;2024-02-15T11:39:48;32.67;;;23.10;;
45318;SDS011;31057;48.498;32.260;2024-02-15T11:44:31;28.10;;;19.00;;
45318;SDS011;31057;48.498;32.260;2024-02-15T11:46:33;37.03;;;27.58;;
45318;SDS011;31057;48.498;32.260;2024-02-15T11:48:36;30.70;;;22.67;;
45318;SDS011;31057;48.498;32.260;2024-02-15T11:50:41;30.77;;;21.92;;
45318;SDS011;31057;48.498;32.260;2024-02-15T11:52:47;17.92;;;13.18;;
45318;SDS011;31057;48.498;32.260;2024-02-15T11:54:50;27.27;;;20.25;;
45318;SDS011;31057;48.498;32.260;2024-02-15T11:56:58;22.08;;;17.25;;
45318;SDS011;31057;48.498;32.260;2024-02-15T11:59:08;27.73;;;21.85;;
45318;SDS011;31057;48.498;32.260;2024-02-15T12:01:19;19.98;;;14.32;;
45318;SDS011;31057;48.498;32.260;2024-02-15T12:03:41;23.48;;;19.05;;
45318;SDS011;31057;48.498;32.260;2024-02-15T12:06:08;21.98;;;17.23;;
45318;SDS011;31057;48.498;32.260;2024-02-15T12:08:28;18.60;;;11.95;;
45318;SDS011;31057;48.498;32.260;2024-02-15T12:10:58;17.90;;;12.23;;
45318;SDS011;31057;48.498;32.260;2024-02-15T12:13:19;21.65;;;15.38;;
45318;SDS011;31057;48.498;32.260;2024-02-15T12:15:40;10.38;;;5.57;;
45318;SDS011;31057;48.498;32.260;2024-02-15T12:18:17;21.55;;;14.82;;
45318;SDS011;31057;48.498;32.260;2024-02-15T12:20:39;22.02;;;14.98;;
45318;SDS011;31057;48.498;32.260;2024-02-15T12:24:54;27.23;;;19.70;;
45318;SDS011;31057;48.498;32.260;2024-02-15T12:27:13;19.48;;;14.57;;
45318;SDS011;31057;48.498;32.260;2024-02-15T12:29:17;22.05;;;17.45;;
45318;SDS011;31057;48.498;32.260;2024-02-15T12:31:19;20.98;;;15.93;;
45318;SDS011;31057;48.498;32.260;2024-02-15T12:33:21;22.30;;;16.58;;
45318;SDS011;31057;48.498;32.260;2024-02-15T12:37:27;33.42;;;24.52;;
45318;SDS011;31057;48.498;32.260;2024-02-15T12:41:33;16.40;;;12.70;;
45318;SDS011;31057;48.498;32.260;2024-02-15T12:45:38;28.25;;;20.40;;
45318;SDS011;31057;48.498;32.260;2024-02-15T12:47:42;23.58;;;18.10;;
45318;SDS011;31057;48.498;32.260;2024-02-15T12:49:44;17.70;;;13.50;;
45318;SDS011;31057;48.498;32.260;2024-02-15T12:51:51;23.98;;;19.10;;
45318;SDS011;31057;48.498;32.260;2024-02-15T12:53:54;24.45;;;17.70;;
45318;SDS011;31057;48.498;32.260;2024-02-15T12:56:10;25.17;;;21.20;;
45318;SDS011;31057;48.498;32.260;2024-02-15T12:58:21;17.52;;;14.98;;
45318;SDS011;31057;48.498;32.260;2024-02-15T13:00:26;23.20;;;19.52;;
45318;SDS011;31057;48.498;32.260;2024-02-15T13:02:33;28.38;;;22.35;;
45318;SDS011;31057;48.498;32.260;2024-02-15T13:04:35;22.50;;;17.95;;
45318;SDS011;31057;48.498;32.260;2024-02-15T13:06:39;22.88;;;15.38;;
45318;SDS011;31057;48.498;32.260;2024-02-15T13:08:41;20.63;;;14.57;;
45318;SDS011;31057;48.498;32.260;2024-02-15T13:10:46;21.65;;;15.07;;
45318;SDS011;31057;48.498;32.260;2024-02-15T13:14:50;35.85;;;29.20;;
45318;SDS011;31057;48.498;32.260;2024-02-15T13:16:52;33.13;;;24.63;;
45318;SDS011;31057;48.498;32.260;2024-02-15T13:18:54;18.90;;;15.00;;
45318;SDS011;31057;48.498;32.260;2024-02-15T13:23:00;18.58;;;12.98;;
45318;SDS011;31057;48.498;32.260;2024-02-15T13:25:12;17.75;;;11.68;;
45318;SDS011;31057;48.498;32.260;2024-02-15T13:27:17;23.63;;;15.18;;